Time;durP1;ratioP1;P1;durP2;ratioP2;P2;SDS_P1;SDS_P2;PMS_P1;PMS_P2;Temp;Humidity;BMP_temperature;BMP_pressure;BME280_temperature;BME280_humidity;BME280_pressure;Samples;Min_cycle;Max_cycle;Signal;HPM_P1;HPM_P2
2023/04/07 00:00:25;;;;;;;12.25;5.78;;;;;;;16.20;48.41;101199.66;4951806;28;20038;-62
2023/04/07 00:02:51;;;;;;;12.82;5.55;;;;;;;16.21;48.94;101198.66;4919956;29;20407;-62
2023/04/07 00:05:16;;;;;;;11.57;5.57;;;;;;;16.23;49.38;101202.91;4951530;28;20038;-62
2023/04/07 00:07:41;;;;;;;13.38;5.88;;;;;;;16.23;49.05;101196.63;4968085;28;20027;-63
2023/04/07 00:10:07;;;;;;;15.20;5.88;;;;;;;16.25;50.09;101205.44;4951392;28;20455;-62
2023/04/07 00:12:34;;;;;;;14.80;6.50;;;;;;;16.27;48.82;101203.44;4951442;28;20046;-62
2023/04/07 00:15:00;;;;;;;18.10;6.55;;;;;;;16.29;49.75;101209.53;4967568;28;20031;-62
2023/04/07 00:17:25;;;;;;;18.77;7.47;;;;;;;16.33;49.33;101211.75;4935390;28;20093;-62
2023/04/07 00:19:51;;;;;;;18.20;8.00;;;;;;;16.34;48.60;101207.19;4968008;28;20035;-62
2023/04/07 00:22:16;;;;;;;19.70;7.93;;;;;;;16.37;50.06;101211.44;4967460;28;20039;-62
2023/04/07 00:24:42;;;;;;;14.45;7.60;;;;;;;16.37;49.55;101215.00;4967511;28;20578;-62
2023/04/07 00:27:07;;;;;;;20.45;8.45;;;;;;;16.36;48.99;101218.69;4951863;28;20062;-62
2023/04/07 00:29:33;;;;;;;17.98;7.68;;;;;;;16.37;49.48;101203.31;4919823;28;20084;-62
2023/04/07 00:31:58;;;;;;;20.17;8.27;;;;;;;16.37;49.09;101204.19;4962856;28;20122;-62
2023/04/07 00:34:23;;;;;;;16.95;8.40;;;;;;;16.40;49.59;101201.16;4967650;28;20039;-61
2023/04/07 00:36:51;;;;;;;17.98;9.20;;;;;;;16.43;48.47;101198.16;4951412;28;20031;-62
2023/04/07 00:39:20;;;;;;;22.90;7.90;;;;;;;16.45;48.53;101201.53;4951668;28;20036;-61
2023/04/07 00:41:46;;;;;;;20.30;8.52;;;;;;;16.46;48.56;101203.25;4951612;28;20043;-61
2023/04/07 00:44:12;;;;;;;21.95;8.75;;;;;;;16.47;48.95;101204.94;4952983;28;20510;-61
2023/04/07 00:46:38;;;;;;;26.13;10.18;;;;;;;16.48;48.66;101201.22;4935330;28;20042;-61
2023/04/07 00:49:03;;;;;;;21.30;8.02;;;;;;;16.50;49.87;101204.59;4951537;28;20035;-61
2023/04/07 00:51:29;;;;;;;19.77;9.10;;;;;;;16.48;49.48;101195.81;4950750;28;20562;-61
2023/04/07 00:53:54;;;;;;;28.95;9.90;;;;;;;16.49;49.45;101202.94;4950752;28;20039;-62
2023/04/07 00:56:20;;;;;;;19.17;9.52;;;;;;;16.50;49.34;101204.59;4935442;28;20043;-61
2023/04/07 00:58:45;;;;;;;19.63;8.55;;;;;;;16.50;48.54;101193.78;4936253;28;20036;-62
2023/04/07 01:01:19;;;;;;;23.38;9.02;;;;;;;16.46;49.22;101197.84;4935517;28;20518;-62
2023/04/07 01:03:49;;;;;;;22.15;9.82;;;;;;;16.46;48.34;101200.53;4935073;28;20035;-62
2023/04/07 01:06:17;;;;;;;21.48;9.18;;;;;;;16.46;49.90;101208.66;4950759;28;20498;-62
2023/04/07 01:08:50;;;;;;;20.40;8.25;;;;;;;16.43;49.61;101206.25;4934857;28;20036;-61
2023/04/07 01:11:22;;;;;;;18.35;8.65;;;;;;;16.37;49.66;101209.59;4934686;28;20473;-62
2023/04/07 01:13:49;;;;;;;21.50;9.20;;;;;;;16.37;48.38;101215.00;4951060;29;20470;-62
2023/04/07 01:16:25;;;;;;;22.17;8.13;;;;;;;16.35;49.47;101208.91;4950724;28;20494;-62
2023/04/07 01:18:53;;;;;;;16.40;7.80;;;;;;;16.35;49.10;101210.75;4934722;28;20032;-61
2023/04/07 01:21:21;;;;;;;17.88;8.02;;;;;;;16.34;49.67;101209.91;4950611;28;20047;-62
2023/04/07 01:24:07;;;;;;;15.70;7.60;;;;;;;16.35;49.27;101213.47;4949457;28;20690;-61
2023/04/07 01:26:33;;;;;;;17.25;7.35;;;;;;;16.34;48.31;101207.19;4953292;28;20038;-62
2023/04/07 01:29:35;;;;;;;24.42;9.15;;;;;;;16.32;48.44;101211.91;4952122;28;20027;-61
2023/04/07 01:32:02;;;;;;;14.75;7.32;;;;;;;16.30;49.33;101205.84;4966483;28;20082;-62
2023/04/07 01:34:29;;;;;;;21.42;8.15;;;;;;;16.29;49.66;101209.53;4966450;28;20043;-61
2023/04/07 01:36:56;;;;;;;19.80;8.60;;;;;;;16.27;48.70;101212.38;4950517;28;20062;-61
2023/04/07 01:39:21;;;;;;;16.50;7.07;;;;;;;16.25;48.45;101211.69;4950709;28;20483;-62
2023/04/07 01:41:48;;;;;;;21.52;8.65;;;;;;;16.28;49.29;101210.53;4919735;28;20093;-62
2023/04/07 01:44:14;;;;;;;21.42;8.15;;;;;;;16.27;49.22;101214.25;4938122;28;20024;-61
2023/04/07 01:46:39;;;;;;;17.17;8.02;;;;;;;16.28;49.15;101226.75;4969685;28;20425;-61
2023/04/07 01:49:06;;;;;;;20.67;8.68;;;;;;;16.28;49.29;101222.19;4936678;28;20556;-61
2023/04/07 01:51:32;;;;;;;20.95;9.65;;;;;;;16.28;47.94;101221.34;4953622;28;20039;-61
2023/04/07 01:53:58;;;;;;;13.20;7.25;;;;;;;16.28;48.65;101213.22;4954487;28;20036;-61
2023/04/07 01:56:23;;;;;;;16.30;7.38;;;;;;;16.29;48.39;101218.50;4939948;28;20039;-61
2023/04/07 01:58:49;;;;;;;19.50;9.68;;;;;;;16.29;48.42;101213.09;4958317;28;20026;-64
2023/04/07 02:01:14;;;;;;;26.02;10.48;;;;;;;16.30;47.89;101225.59;4940311;28;20037;-61
2023/04/07 02:03:46;;;;;;;29.23;10.18;;;;;;;16.30;49.32;101220.16;4953784;28;20507;-62
2023/04/07 02:06:16;;;;;;;23.40;9.00;;;;;;;16.29;48.29;101217.63;4969680;28;20427;-61
2023/04/07 02:08:46;;;;;;;26.23;10.73;;;;;;;16.26;48.75;101217.94;4937427;28;20403;-62
2023/04/07 02:11:12;;;;;;;20.20;9.15;;;;;;;16.27;49.37;101225.06;4938047;29;20038;-62
2023/04/07 02:13:38;;;;;;;21.63;8.70;;;;;;;16.21;48.80;101214.88;4937570;28;20027;-62
2023/04/07 02:16:05;;;;;;;23.70;9.43;;;;;;;16.25;48.31;101225.22;4937293;28;20046;-62
2023/04/07 02:18:31;;;;;;;29.25;10.80;;;;;;;16.23;49.24;101221.81;4952967;28;20055;-62
2023/04/07 02:20:57;;;;;;;25.55;11.38;;;;;;;16.26;48.25;101223.34;4937448;28;20495;-61
2023/04/07 02:23:23;;;;;;;29.88;12.45;;;;;;;16.28;49.29;101221.34;4937088;28;20034;-62
2023/04/07 02:25:48;;;;;;;23.35;10.10;;;;;;;16.29;49.20;101228.47;4953533;28;20039;-61
2023/04/07 02:28:14;;;;;;;28.25;11.05;;;;;;;16.30;48.22;101225.59;4937290;28;20089;-62
2023/04/07 02:30:39;;;;;;;28.17;11.95;;;;;;;16.33;48.97;101224.44;4953636;28;20058;-61
2023/04/07 02:33:05;;;;;;;29.77;10.88;;;;;;;16.35;49.71;101226.97;4953186;28;20085;-62
2023/04/07 02:35:30;;;;;;;26.35;11.65;;;;;;;16.37;48.73;101231.22;4969192;28;20039;-61
2023/04/07 02:37:55;;;;;;;28.77;12.30;;;;;;;16.38;48.79;101226.66;4937412;28;20031;-62
2023/04/07 02:40:21;;;;;;;33.03;12.07;;;;;;;16.38;48.48;101222.13;4921105;28;20085;-61
2023/04/07 02:42:46;;;;;;;31.73;12.32;;;;;;;16.38;48.30;101227.53;4936779;28;20044;-61
2023/04/07 02:45:12;;;;;;;29.63;11.70;;;;;;;16.38;48.44;101224.81;4952784;28;20023;-62
2023/04/07 02:47:39;;;;;;;30.23;11.90;;;;;;;16.40;49.77;101227.34;4952834;28;20133;-61
2023/04/07 02:50:05;;;;;;;40.28;13.45;;;;;;;16.38;49.38;101224.81;4953113;28;20023;-61
2023/04/07 02:52:30;;;;;;;33.45;12.50;;;;;;;16.37;49.52;101215.00;4953445;28;20074;-61
2023/04/07 02:54:56;;;;;;;30.23;13.40;;;;;;;16.39;48.13;101223.78;4953943;28;20507;-61
2023/04/07 02:57:21;;;;;;;30.15;12.73;;;;;;;16.39;48.76;101223.78;4952663;28;20126;-62
2023/04/07 02:59:46;;;;;;;36.70;13.18;;;;;;;16.41;49.77;101240.72;4936680;28;20035;-62
2023/04/07 03:02:12;;;;;;;36.00;13.52;;;;;;;16.42;48.65;101245.13;4952936;28;20092;-61
2023/04/07 03:04:37;;;;;;;35.50;12.30;;;;;;;16.44;48.23;101244.97;4936573;28;20045;-61
2023/04/07 03:07:03;;;;;;;32.35;13.57;;;;;;;16.44;48.42;101237.72;4952396;28;20035;-61
2023/04/07 03:09:28;;;;;;;31.90;11.63;;;;;;;16.47;49.72;101234.66;4936476;28;20043;-61
2023/04/07 03:11:55;;;;;;;26.38;11.25;;;;;;;16.48;49.05;101230.97;4953582;28;20036;-60
2023/04/07 03:14:21;;;;;;;28.83;12.27;;;;;;;16.47;49.12;101234.66;4936531;28;20032;-61
2023/04/07 03:16:46;;;;;;;29.20;11.60;;;;;;;16.50;48.99;101234.34;4954010;28;20023;-62
2023/04/07 03:19:12;;;;;;;34.67;11.85;;;;;;;16.51;48.45;101238.78;4953536;28;20027;-61
2023/04/07 03:21:38;;;;;;;31.90;12.40;;;;;;;16.52;49.16;101236.91;4936165;28;20037;-61
2023/04/07 03:24:05;;;;;;;30.98;12.75;;;;;;;16.52;48.26;101236.91;4920424;29;20039;-61
2023/04/07 03:26:31;;;;;;;30.77;12.25;;;;;;;16.52;48.21;101239.63;4952157;28;20027;-62
2023/04/07 03:28:56;;;;;;;34.88;12.32;;;;;;;16.52;49.28;101245.88;4954057;28;20043;-61
2023/04/07 03:31:22;;;;;;;25.02;10.98;;;;;;;16.50;48.38;101237.06;4951382;28;20509;-65
2023/04/07 03:33:48;;;;;;;37.47;13.95;;;;;;;16.47;49.73;101240.06;4953259;28;20042;-62
2023/04/07 03:36:14;;;;;;;31.20;12.20;;;;;;;16.47;49.00;101239.25;4953108;28;20030;-62
2023/04/07 03:38:39;;;;;;;31.67;13.23;;;;;;;16.48;48.69;101243.63;4951737;28;20032;-61
2023/04/07 03:41:05;;;;;;;28.90;12.35;;;;;;;16.47;48.81;101234.66;4936453;28;20082;-61
2023/04/07 03:43:31;;;;;;;30.25;12.88;;;;;;;16.48;49.12;101236.38;4953152;28;20058;-61
2023/04/07 03:45:56;;;;;;;28.30;11.20;;;;;;;16.47;48.64;101240.06;4952054;28;20050;-61
2023/04/07 03:48:22;;;;;;;26.20;11.60;;;;;;;16.46;48.78;101241.09;4952627;28;20502;-61
2023/04/07 03:50:47;;;;;;;28.63;13.18;;;;;;;16.45;48.29;101235.84;4951578;28;20035;-61
2023/04/07 03:53:15;;;;;;;26.63;12.45;;;;;;;16.47;48.52;101248.19;4951971;28;20055;-61
2023/04/07 03:55:41;;;;;;;34.75;11.55;;;;;;;16.47;49.21;101242.78;4953035;28;20151;-61
2023/04/07 03:58:06;;;;;;;27.48;10.98;;;;;;;16.47;48.38;101242.78;4951651;28;20464;-61
2023/04/07 04:00:32;;;;;;;22.65;9.40;;;;;;;16.43;49.43;101241.41;4952723;28;20114;-62
2023/04/07 04:02:58;;;;;;;18.92;8.93;;;;;;;16.35;48.63;101246.75;4935814;28;20038;-61
2023/04/07 04:05:24;;;;;;;17.00;8.43;;;;;;;16.33;48.65;101248.78;4935071;28;20027;-62
2023/04/07 04:07:51;;;;;;;21.33;7.13;;;;;;;16.30;49.43;101251.78;4968052;28;20034;-61
2023/04/07 04:10:17;;;;;;;16.33;6.47;;;;;;;16.24;49.08;101257.81;4935867;28;20411;-61
2023/04/07 04:12:43;;;;;;;14.13;5.15;;;;;;;16.20;48.76;101257.28;4951887;28;20537;-61
2023/04/07 04:15:08;;;;;;;9.75;4.47;;;;;;;16.17;48.85;101259.41;4935682;28;20449;-62
2023/04/07 04:17:34;;;;;;;12.00;5.13;;;;;;;16.12;48.30;101254.50;4951853;28;20077;-62
2023/04/07 04:19:59;;;;;;;11.18;4.93;;;;;;;16.09;48.11;101256.66;4935976;28;20502;-62
2023/04/07 04:22:25;;;;;;;13.98;4.93;;;;;;;16.09;48.61;101262.06;4935494;28;20039;-62
2023/04/07 04:24:50;;;;;;;14.98;5.03;;;;;;;16.11;48.16;101262.72;4935307;28;20043;-61
2023/04/07 04:27:16;;;;;;;9.05;4.68;;;;;;;16.05;49.10;101257.97;4951483;28;20115;-61
2023/04/07 04:29:41;;;;;;;10.32;4.32;;;;;;;16.04;48.01;101256.25;4951190;28;20081;-61
2023/04/07 04:32:06;;;;;;;9.68;4.38;;;;;;;16.07;49.01;101261.38;4935496;29;20046;-61
2023/04/07 04:34:32;;;;;;;12.70;5.10;;;;;;;16.09;48.41;101262.06;4952533;28;20414;-61
2023/04/07 04:36:57;;;;;;;9.35;4.78;;;;;;;16.11;48.70;101265.44;4951793;28;20040;-61
2023/04/07 04:39:22;;;;;;;7.13;3.67;;;;;;;16.10;48.00;101264.63;4952407;28;20166;-61
2023/04/07 04:41:48;;;;;;;12.75;4.28;;;;;;;16.05;48.85;101260.69;4952883;28;20043;-61
2023/04/07 04:44:13;;;;;;;13.15;4.82;;;;;;;16.12;47.55;101275.25;4937465;28;20039;-61
2023/04/07 04:46:39;;;;;;;9.75;4.10;;;;;;;16.09;48.25;101276.41;4935073;28;20031;-62
2023/04/07 04:49:05;;;;;;;10.82;4.10;;;;;;;16.08;47.96;101276.59;4950983;28;20115;-61
2023/04/07 04:51:30;;;;;;;10.00;4.35;;;;;;;16.07;47.57;101278.44;4950860;28;20037;-61
2023/04/07 04:53:56;;;;;;;9.77;4.10;;;;;;;16.06;48.30;101275.88;4934650;28;20122;-61
2023/04/07 04:56:21;;;;;;;10.27;3.72;;;;;;;16.06;48.68;101275.88;4950794;28;20414;-62
2023/04/07 04:58:46;;;;;;;12.30;5.15;;;;;;;16.05;47.49;101295.81;4935523;29;20042;-62
2023/04/07 05:01:12;;;;;;;12.02;3.78;;;;;;;16.07;48.90;101293.78;4934913;28;20039;-61
2023/04/07 05:03:38;;;;;;;7.85;4.25;;;;;;;16.04;47.66;101296.81;4950779;28;20039;-61
2023/04/07 05:06:03;;;;;;;11.07;5.00;;;;;;;16.05;48.45;101295.81;4966594;28;20031;-61
2023/04/07 05:08:29;;;;;;;8.60;4.50;;;;;;;16.07;47.82;101299.19;4950259;28;20453;-61
2023/04/07 05:10:54;;;;;;;12.38;5.43;;;;;;;16.08;47.90;101301.72;4952399;28;20039;-61
2023/04/07 05:13:21;;;;;;;9.30;5.05;;;;;;;16.09;47.21;101302.59;4950821;28;20575;-61
2023/04/07 05:15:46;;;;;;;12.65;4.90;;;;;;;16.10;47.53;101298.91;4946856;28;20118;-62
2023/04/07 05:18:12;;;;;;;9.07;5.05;;;;;;;16.12;48.17;101305.00;4936171;28;20571;-61
2023/04/07 05:20:38;;;;;;;7.22;5.13;;;;;;;16.13;48.09;101309.41;4919349;28;20082;-62
2023/04/07 05:23:03;;;;;;;9.90;4.30;;;;;;;16.15;48.51;101310.94;4936587;29;20036;-62
2023/04/07 05:25:29;;;;;;;12.80;4.95;;;;;;;16.15;47.37;101301.97;4933913;28;20138;-61
2023/04/07 05:27:54;;;;;;;9.35;4.05;;;;;;;16.16;48.16;101309.94;4903476;28;20043;-61
2023/04/07 05:30:20;;;;;;;11.20;4.00;;;;;;;16.18;48.25;101307.09;4934817;28;20042;-61
2023/04/07 05:32:45;;;;;;;10.70;4.55;;;;;;;16.18;48.02;101307.09;4934657;28;20039;-62
2023/04/07 05:35:11;;;;;;;16.13;4.32;;;;;;;16.19;47.78;101306.91;4950891;28;20050;-61
2023/04/07 05:37:36;;;;;;;13.55;5.00;;;;;;;16.22;48.31;101308.47;4934573;28;20032;-61
2023/04/07 05:40:02;;;;;;;8.85;4.43;;;;;;;16.23;47.95;101312.88;4934580;28;20040;-61
2023/04/07 05:42:27;;;;;;;12.38;4.97;;;;;;;16.24;47.70;101306.47;4934712;28;20407;-62
2023/04/07 05:44:52;;;;;;;13.18;5.95;;;;;;;16.21;48.24;101314.88;4935765;28;20040;-61
2023/04/07 05:47:18;;;;;;;15.15;5.75;;;;;;;16.19;48.02;101319.59;4934754;28;20028;-61
2023/04/07 05:49:46;;;;;;;15.02;6.07;;;;;;;16.20;47.14;101322.16;4936263;29;20032;-61
2023/04/07 05:52:12;;;;;;;12.68;5.65;;;;;;;16.17;48.63;101322.44;4934530;28;20040;-62
2023/04/07 05:54:40;;;;;;;18.33;6.20;;;;;;;16.17;48.60;101322.44;4934923;29;20048;-61
2023/04/07 05:57:06;;;;;;;17.27;6.63;;;;;;;16.17;47.05;101324.28;4934687;28;20039;-61
2023/04/07 05:59:33;;;;;;;15.95;6.72;;;;;;;16.21;47.26;101329.25;4935810;28;20027;-61
2023/04/07 06:01:58;;;;;;;15.15;6.10;;;;;;;16.25;47.24;101327.06;4934636;29;20077;-62
2023/04/07 06:04:23;;;;;;;13.85;6.28;;;;;;;16.27;46.92;101327.78;4934476;28;20040;-62
2023/04/07 06:06:49;;;;;;;20.70;7.07;;;;;;;16.30;48.46;101336.44;4935563;28;20491;-62
2023/04/07 06:09:15;;;;;;;18.17;7.20;;;;;;;16.30;47.53;101330.19;4921233;29;20032;-62
2023/04/07 06:11:40;;;;;;;21.42;6.82;;;;;;;16.32;47.09;101341.69;4938130;28;20036;-62
2023/04/07 06:14:06;;;;;;;19.33;7.07;;;;;;;16.32;47.98;101344.41;4923697;29;20031;-61
2023/04/07 06:16:31;;;;;;;14.73;4.90;;;;;;;16.31;47.94;101346.25;4925980;28;20410;-62
2023/04/07 06:18:56;;;;;;;19.25;6.40;;;;;;;16.35;48.27;101341.41;4934019;28;20510;-61
2023/04/07 06:21:22;;;;;;;12.85;5.57;;;;;;;16.35;48.18;101341.41;4902174;28;20408;-62
2023/04/07 06:23:47;;;;;;;13.00;6.53;;;;;;;16.38;47.16;101346.50;4918288;28;20381;-62
2023/04/07 06:26:13;;;;;;;16.80;5.95;;;;;;;16.40;47.32;101344.47;4935748;29;20506;-62
2023/04/07 06:28:39;;;;;;;11.85;5.82;;;;;;;16.37;47.90;101350.19;4934852;28;20040;-62
2023/04/07 06:31:05;;;;;;;15.60;6.43;;;;;;;16.43;48.15;101348.72;4934345;28;20036;-62
2023/04/07 06:33:30;;;;;;;20.67;7.28;;;;;;;16.47;48.37;101350.13;4933904;29;20103;-62
2023/04/07 06:35:56;;;;;;;19.45;6.88;;;;;;;16.46;47.25;101359.25;4933791;28;20047;-61
2023/04/07 06:38:22;;;;;;;19.15;6.78;;;;;;;16.48;48.41;101357.22;4935177;28;20040;-61
2023/04/07 06:40:47;;;;;;;15.68;7.57;;;;;;;16.49;48.25;101358.94;4918400;29;20028;-61
2023/04/07 06:43:12;;;;;;;16.63;6.30;;;;;;;16.50;46.78;101355.22;4933878;28;20035;-61
2023/04/07 06:45:38;;;;;;;18.00;6.57;;;;;;;16.52;47.73;101367.59;4918095;28;20533;-61
2023/04/07 06:48:03;;;;;;;20.45;7.05;;;;;;;16.55;47.26;101372.72;4933720;28;20038;-61
2023/04/07 06:50:29;;;;;;;21.90;8.88;;;;;;;16.54;47.89;101362.03;4933517;28;20058;-61
2023/04/07 06:52:55;;;;;;;17.10;7.63;;;;;;;16.54;47.39;101379.13;4935039;29;20048;-62
2023/04/07 06:55:21;;;;;;;18.48;7.72;;;;;;;16.56;47.89;101378.97;4949540;28;20047;-61
2023/04/07 06:57:47;;;;;;;32.47;8.02;;;;;;;16.53;46.92;101381.94;4933572;28;20051;-61
2023/04/07 07:00:14;;;;;;;19.65;8.13;;;;;;;16.52;47.08;101383.81;4933528;28;20032;-61
2023/04/07 07:02:40;;;;;;;20.25;8.95;;;;;;;16.53;47.24;101388.25;4917643;29;20395;-62
2023/04/07 07:05:07;;;;;;;20.88;8.43;;;;;;;16.55;48.67;101391.66;4918266;29;20031;-61
2023/04/07 07:07:32;;;;;;;22.23;9.55;;;;;;;16.52;47.99;101397.34;4933742;29;20380;-61
2023/04/07 07:09:57;;;;;;;26.10;7.72;;;;;;;16.51;47.34;101398.34;4933686;28;20043;-63
2023/04/07 07:12:23;;;;;;;22.23;9.23;;;;;;;16.50;47.37;101404.75;4934491;28;20399;-62
2023/04/07 07:14:49;;;;;;;21.60;8.90;;;;;;;16.49;47.25;101407.63;4933082;28;20043;-61
2023/04/07 07:17:15;;;;;;;20.42;7.82;;;;;;;16.48;48.03;101400.50;4948948;28;20024;-62
2023/04/07 07:19:40;;;;;;;22.40;8.68;;;;;;;16.46;47.91;101408.78;4949688;28;20027;-62
2023/04/07 07:22:06;;;;;;;23.65;8.23;;;;;;;16.45;47.50;101401.66;4949001;28;20451;-61
2023/04/07 07:24:32;;;;;;;21.85;9.35;;;;;;;16.46;48.61;101416.88;4935601;28;20050;-61
2023/04/07 07:27:02;;;;;;;24.88;9.23;;;;;;;16.44;47.73;101399.97;4949584;28;20086;-61
2023/04/07 07:29:28;;;;;;;23.30;9.27;;;;;;;16.51;47.33;101413.72;4917687;28;20032;-62
2023/04/07 07:31:54;;;;;;;26.88;9.32;;;;;;;16.54;46.89;101408.88;4933228;28;20411;-61
2023/04/07 07:34:19;;;;;;;22.05;10.02;;;;;;;16.55;46.83;101413.31;4948904;28;20036;-61
2023/04/07 07:36:45;;;;;;;20.35;8.75;;;;;;;16.59;47.95;101417.38;4932869;29;20051;-61
2023/04/07 07:39:10;;;;;;;20.80;8.45;;;;;;;16.63;47.51;101421.50;4931957;28;20043;-61
2023/04/07 07:41:35;;;;;;;23.27;8.52;;;;;;;16.66;46.90;101420.34;4932917;28;20039;-61
2023/04/07 07:44:01;;;;;;;16.42;8.00;;;;;;;16.67;47.27;101417.47;4917697;28;20088;-62
2023/04/07 07:46:26;;;;;;;21.45;8.88;;;;;;;16.69;48.03;101415.47;4948946;28;20039;-61
2023/04/07 07:48:52;;;;;;;22.83;8.85;;;;;;;16.67;48.23;101422.88;4933056;28;20032;-61
2023/04/07 07:51:17;;;;;;;22.50;8.27;;;;;;;16.69;48.23;101426.28;4932955;28;20492;-61
2023/04/07 07:53:44;;;;;;;23.10;8.93;;;;;;;16.70;48.06;101427.97;4932561;28;20066;-62
2023/04/07 07:56:10;;;;;;;23.38;8.75;;;;;;;16.74;47.36;101434.78;4933097;28;20035;-62
2023/04/07 07:58:35;;;;;;;22.85;8.82;;;;;;;16.81;47.64;101430.44;4915598;28;20050;-62
2023/04/07 08:01:01;;;;;;;23.85;9.07;;;;;;;16.85;47.62;101434.56;4916738;29;20032;-62
2023/04/07 08:03:26;;;;;;;18.27;7.95;;;;;;;16.94;46.63;101429.22;4948462;28;20036;-62
2023/04/07 08:05:52;;;;;;;29.25;9.07;;;;;;;17.01;47.55;101427.56;4932452;29;20031;-62
2023/04/07 08:08:17;;;;;;;24.80;9.80;;;;;;;17.08;47.04;101426.81;4932296;28;20035;-62
2023/04/07 08:10:43;;;;;;;21.77;9.32;;;;;;;17.20;46.88;101432.81;4934083;29;20467;-61
2023/04/07 08:13:09;;;;;;;23.67;9.43;;;;;;;17.23;46.75;101436.06;4932396;28;20479;-62
2023/04/07 08:15:35;;;;;;;24.77;9.55;;;;;;;17.31;47.37;101443.38;4916731;28;20052;-61
2023/04/07 08:18:03;;;;;;;21.70;9.52;;;;;;;17.36;46.89;101441.09;4933418;28;20090;-63
2023/04/07 08:20:29;;;;;;;23.98;10.27;;;;;;;17.42;46.73;101445.84;4932655;28;20475;-62
2023/04/07 08:22:54;;;;;;;24.90;9.43;;;;;;;17.45;47.08;101442.81;4917655;29;20118;-62
2023/04/07 08:25:20;;;;;;;25.48;10.05;;;;;;;17.52;47.35;101449.31;4948120;28;20384;-62
2023/04/07 08:27:45;;;;;;;21.85;9.05;;;;;;;17.56;47.12;101453.44;4931291;28;20043;-62
2023/04/07 08:30:11;;;;;;;16.75;8.30;;;;;;;17.60;46.40;101452.13;4932093;28;20035;-61
2023/04/07 08:32:38;;;;;;;26.50;9.25;;;;;;;17.62;46.63;101450.09;4916580;28;20032;-62
2023/04/07 08:35:04;;;;;;;27.58;9.23;;;;;;;17.60;47.17;101452.13;4917650;28;20059;-62
2023/04/07 08:37:30;;;;;;;18.85;8.77;;;;;;;17.58;46.83;101462.28;4932147;29;20415;-62
2023/04/07 08:39:55;;;;;;;21.73;8.50;;;;;;;17.60;46.80;101460.25;4933774;28;20042;-61
2023/04/07 08:42:26;;;;;;;17.33;7.85;;;;;;;17.62;46.69;101460.91;4932229;28;20318;-62
2023/04/07 08:44:53;;;;;;;18.95;8.02;;;;;;;17.63;46.77;101465.34;4916239;29;20030;-62
2023/04/07 08:47:19;;;;;;;18.08;8.40;;;;;;;17.63;46.75;101462.63;4931891;28;20502;-61
2023/04/07 08:49:46;;;;;;;19.73;7.10;;;;;;;17.63;46.90;101468.06;4932556;28;20101;-61
2023/04/07 08:52:14;;;;;;;22.17;8.15;;;;;;;17.61;47.19;101467.38;4931656;28;20031;-61
2023/04/07 08:54:40;;;;;;;21.52;8.02;;;;;;;17.60;47.25;101470.22;4915901;29;20050;-62
2023/04/07 08:57:07;;;;;;;17.40;7.88;;;;;;;17.65;46.55;101468.72;4915745;28;20048;-62
2023/04/07 08:59:34;;;;;;;14.90;7.60;;;;;;;17.68;46.37;101473.84;4915775;28;20035;-62
2023/04/07 09:01:59;;;;;;;20.83;8.45;;;;;;;17.76;46.93;101471.19;4948284;28;20126;-62
2023/04/07 09:04:26;;;;;;;17.35;8.10;;;;;;;17.82;46.21;101480.53;4931733;28;20038;-62
2023/04/07 09:06:51;;;;;;;20.15;7.75;;;;;;;17.87;46.71;101479.03;4947584;28;20028;-62
2023/04/07 09:09:17;;;;;;;17.92;8.70;;;;;;;17.83;46.14;101474.97;4931711;29;20491;-62
2023/04/07 09:11:42;;;;;;;17.80;7.50;;;;;;;17.87;47.58;101475.47;4915872;29;20032;-62
2023/04/07 09:14:08;;;;;;;19.50;8.40;;;;;;;17.88;46.38;101475.31;4900530;28;20100;-62
2023/04/07 09:16:34;;;;;;;18.95;7.53;;;;;;;17.88;46.55;101469.91;4915478;28;20407;-62
2023/04/07 09:18:59;;;;;;;15.45;7.60;;;;;;;17.91;46.74;101476.88;4931746;28;20060;-61
2023/04/07 09:21:26;;;;;;;21.92;7.13;;;;;;;17.95;46.88;101481.78;4914582;28;20032;-61
2023/04/07 09:23:52;;;;;;;20.58;7.18;;;;;;;18.02;46.29;101482.88;4931536;28;20407;-61
2023/04/07 09:26:17;;;;;;;15.40;6.53;;;;;;;18.02;46.67;101477.44;4899650;28;20036;-63
2023/04/07 09:28:44;;;;;;;15.13;6.97;;;;;;;18.10;45.83;101473.06;4933187;29;20016;-62
2023/04/07 09:31:09;;;;;;;17.95;7.65;;;;;;;18.11;46.11;101475.63;4947384;28;20043;-61
2023/04/07 09:33:35;;;;;;;11.25;6.05;;;;;;;18.16;45.69;101472.41;4947309;28;20408;-62
2023/04/07 09:36:02;;;;;;;15.18;6.32;;;;;;;18.18;46.24;101478.50;4900338;28;20034;-61
2023/04/07 09:38:38;;;;;;;12.32;6.22;;;;;;;18.21;46.04;101481.75;4947256;28;20036;-62
2023/04/07 09:41:06;;;;;;;12.63;5.15;;;;;;;18.19;46.47;101477.50;4931825;29;20078;-62
2023/04/07 09:43:37;;;;;;;12.85;5.30;;;;;;;18.16;46.76;101480.56;4931480;29;20122;-62
2023/04/07 09:46:20;;;;;;;10.25;5.13;;;;;;;18.17;45.92;101480.41;4931244;29;20032;-62
2023/04/07 09:48:47;;;;;;;13.32;5.47;;;;;;;18.22;46.26;101471.78;4931120;28;20050;-63
2023/04/07 09:51:16;;;;;;;11.02;4.78;;;;;;;18.28;46.05;101473.84;4931416;28;20415;-62
2023/04/07 09:53:46;;;;;;;11.68;5.10;;;;;;;18.40;45.69;101480.66;4931157;28;20075;-62
2023/04/07 09:56:15;;;;;;;12.65;4.22;;;;;;;18.54;45.64;101482.75;4931577;28;20031;-61
2023/04/07 09:58:40;;;;;;;9.45;4.25;;;;;;;18.59;45.70;101485.84;4900736;28;20055;-62
2023/04/07 10:01:10;;;;;;;8.43;4.30;;;;;;;18.59;45.15;101477.72;4900047;28;20036;-62
2023/04/07 10:03:36;;;;;;;8.02;4.53;;;;;;;18.58;45.77;101487.72;4934313;28;20106;-62
2023/04/07 10:06:02;;;;;;;9.32;4.75;;;;;;;18.58;45.68;101487.72;4934832;29;20054;-62
2023/04/07 10:08:31;;;;;;;12.65;4.57;;;;;;;18.65;46.07;101478.91;4919095;28;20032;-62
2023/04/07 10:10:58;;;;;;;10.77;4.78;;;;;;;18.76;45.50;101476.72;4935526;28;20051;-62
2023/04/07 10:13:24;;;;;;;9.25;4.20;;;;;;;18.81;45.82;101482.53;4934620;29;20097;-64
2023/04/07 10:15:50;;;;;;;7.75;3.67;;;;;;;18.82;45.32;101469.78;4936086;28;20031;-61
2023/04/07 10:18:17;;;;;;;7.20;4.18;;;;;;;18.88;44.83;101469.97;4919156;28;20544;-62
2023/04/07 10:20:43;;;;;;;10.40;3.55;;;;;;;18.99;44.68;101472.34;4934490;28;20028;-62
2023/04/07 10:23:16;;;;;;;9.50;4.28;;;;;;;19.05;44.71;101471.69;4934976;28;20439;-62
2023/04/07 10:25:44;;;;;;;4.30;3.15;;;;;;;19.08;44.98;101473.22;4936015;29;20072;-63
2023/04/07 10:28:12;;;;;;;8.13;3.40;;;;;;;19.10;44.85;101480.16;4938430;28;20111;-63
2023/04/07 10:30:38;;;;;;;9.23;4.20;;;;;;;19.10;44.79;101474.75;4936594;28;20128;-61
2023/04/07 10:33:03;;;;;;;8.10;4.22;;;;;;;19.10;44.37;101485.59;4934073;28;20499;-61
2023/04/07 10:36:02;;;;;;;8.75;4.70;;;;;;;19.11;44.65;101476.44;4933985;28;20170;-61
2023/04/07 10:38:28;;;;;;;15.30;4.97;;;;;;;19.09;44.84;101483.94;4933862;28;20107;-62
2023/04/07 10:40:53;;;;;;;11.90;4.97;;;;;;;19.08;45.17;101487.66;4918870;29;20027;-62
2023/04/07 10:43:39;;;;;;;7.05;4.05;;;;;;;19.05;44.95;101482.56;4934199;28;20093;-61
2023/04/07 10:46:05;;;;;;;9.52;4.55;;;;;;;19.00;44.58;101489.50;4919030;29;20044;-62
2023/04/07 10:48:34;;;;;;;7.95;5.53;;;;;;;18.98;44.68;101486.94;4936235;28;20096;-63
2023/04/07 10:51:07;;;;;;;9.35;4.57;;;;;;;19.01;45.00;101492.03;4934332;28;20479;-62
2023/04/07 10:53:33;;;;;;;9.68;4.43;;;;;;;19.07;44.72;101487.81;4935278;28;20543;-62
2023/04/07 10:55:59;;;;;;;8.98;3.85;;;;;;;19.11;45.01;101498.19;4902954;28;20031;-62
2023/04/07 10:58:29;;;;;;;9.85;4.55;;;;;;;19.14;44.51;101500.56;4902246;28;20399;-62
2023/04/07 11:01:07;;;;;;;7.70;3.50;;;;;;;19.08;44.90;101503.94;4933395;28;20040;-61
2023/04/07 11:03:35;;;;;;;8.18;4.35;;;;;;;19.00;43.98;101495.78;4933544;28;20170;-62
2023/04/07 11:06:13;;;;;;;8.00;3.38;;;;;;;18.96;44.37;101502.56;4933361;29;20024;-63
2023/04/07 11:08:43;;;;;;;8.40;3.42;;;;;;;18.94;44.64;101506.47;4933670;29;20040;-61
2023/04/07 11:11:14;;;;;;;5.30;3.05;;;;;;;18.97;44.51;101496.13;4934991;29;20035;-62
2023/04/07 11:13:48;;;;;;;7.45;2.97;;;;;;;19.03;44.35;101506.31;4917477;28;20127;-62